createdAt,value
2019-01-15T00:00:03.020Z,1.11
2019-01-15T00:01:03.478Z,1.42
2019-01-15T00:02:03.440Z,1.64
2019-01-15T00:03:02.980Z,2.19
2019-01-15T00:04:03.528Z,1.71
2019-01-15T00:05:02.655Z,1.58
2019-01-15T00:06:02.724Z,1.73
2019-01-15T00:07:03.422Z,1.58
2019-01-15T00:08:02.817Z,1.32
2019-01-15T00:09:03.323Z,1.68
2019-01-15T00:10:02.707Z,1.51
2019-01-15T00:11:02.853Z,1.24
2019-01-15T00:12:08.162Z,1.42
2019-01-15T00:13:03.073Z,1.19
2019-01-15T00:14:03.608Z,1.25
2019-01-15T00:15:02.709Z,1.75
2019-01-15T00:16:03.627Z,2.67
2019-01-15T00:17:03.440Z,1.18
2019-01-15T00:18:02.852Z,1.48
2019-01-15T00:19:03.646Z,1.83
2019-01-15T00:20:03.406Z,1.95
2019-01-15T00:21:03.420Z,1.61
2019-01-15T00:22:03.608Z,1.26
2019-01-15T00:23:02.851Z,1.45
2019-01-15T00:24:02.891Z,1.63
2019-01-15T00:25:03.044Z,1.68
2019-01-15T00:26:03.581Z,1.68
2019-01-15T00:27:03.295Z,1.51
2019-01-15T00:28:03.113Z,1.48
2019-01-15T00:29:02.758Z,1.48
2019-01-15T00:30:03.028Z,1.36
2019-01-15T00:31:02.842Z,1.62
2019-01-15T00:32:02.876Z,1.68
2019-01-15T00:33:02.939Z,1.32
2019-01-15T00:34:03.230Z,2.03
2019-01-15T00:35:02.158Z,1.59
2019-01-15T00:36:02.716Z,2.01
2019-01-15T00:37:03.107Z,1.62
2019-01-15T00:38:02.588Z,1.76
2019-01-15T00:39:03.340Z,2.41
2019-01-15T00:40:03.444Z,1.45
2019-01-15T00:41:02.892Z,1.78
2019-01-15T00:42:02.978Z,1.38
2019-01-15T00:43:03.243Z,1.58
2019-01-15T00:44:03.105Z,1.67
2019-01-15T00:45:03.713Z,1.71
2019-01-15T00:46:03.005Z,1.59
2019-01-15T00:47:03.522Z,1.62
2019-01-15T00:48:03.088Z,1.52
2019-01-15T00:49:03.644Z,2.21
2019-01-15T00:50:02.821Z,1.61
2019-01-15T00:51:03.347Z,1.64
2019-01-15T00:52:02.943Z,1.61
2019-01-15T00:53:03.143Z,1.64
2019-01-15T00:54:03.005Z,1.92
2019-01-15T00:55:03.221Z,2.08
2019-01-15T00:56:03.604Z,1.44
2019-01-15T00:57:03.443Z,1.76
2019-01-15T00:58:02.994Z,1.63
2019-01-15T00:59:02.870Z,1.89
2019-01-15T01:00:03.327Z,1.8
2019-01-15T01:01:03.071Z,2.12
2019-01-15T01:02:02.998Z,2.12
2019-01-15T01:03:02.743Z,2.06
2019-01-15T01:04:03.090Z,2.06
2019-01-15T01:05:03.525Z,2.36
2019-01-15T01:06:02.611Z,1.99
2019-01-15T01:07:03.142Z,2
2019-01-15T01:08:03.524Z,1.78
2019-01-15T01:09:03.771Z,1.96
2019-01-15T01:10:02.975Z,2.15
2019-01-15T01:11:03.625Z,2.36
2019-01-15T01:12:03.092Z,2.58
2019-01-15T01:13:02.938Z,2.38
2019-01-15T01:14:02.948Z,2.09
2019-01-15T01:15:03.706Z,2.09
2019-01-15T01:16:03.515Z,2.71
2019-01-15T01:17:02.863Z,2.71
2019-01-15T01:18:02.522Z,2.3
2019-01-15T01:19:03.444Z,2.67
2019-01-15T01:20:02.762Z,2.5
2019-01-15T01:21:03.385Z,2.41
2019-01-15T01:22:03.107Z,2.45
2019-01-15T01:23:03.933Z,2.58
2019-01-15T01:24:03.672Z,2.9
2019-01-15T01:25:03.157Z,2.64
2019-01-15T01:26:02.798Z,2.47
2019-01-15T01:27:03.500Z,2.36
2019-01-15T01:28:03.321Z,3.01
2019-01-15T01:29:03.057Z,2.78
2019-01-15T01:30:02.694Z,2.88
2019-01-15T01:31:02.916Z,2.62
2019-01-15T01:32:03.351Z,2.81
2019-01-15T01:33:03.037Z,2.89
2019-01-15T01:34:03.562Z,2.86
2019-01-15T01:35:03.256Z,2.98
2019-01-15T01:36:03.489Z,2.2
2019-01-15T01:37:03.236Z,2.31
2019-01-15T01:38:03.435Z,2.64
2019-01-15T01:39:02.849Z,2.98
2019-01-15T01:40:03.277Z,2.52
2019-01-15T01:41:03.534Z,2.7
2019-01-15T01:42:03.085Z,2.41
2019-01-15T01:43:03.359Z,2.65
2019-01-15T01:44:02.669Z,2.68
2019-01-15T01:45:03.794Z,3.08
2019-01-15T01:46:03.502Z,2.69
2019-01-15T01:47:02.681Z,4.4
2019-01-15T01:48:03.331Z,2.67
2019-01-15T01:49:03.219Z,2.86
2019-01-15T01:50:03.436Z,2.58
2019-01-15T01:51:03.096Z,2.96
2019-01-15T01:52:03.090Z,3.15
2019-01-15T01:53:02.845Z,2.55
2019-01-15T01:54:03.259Z,2.78
2019-01-15T01:55:03.160Z,2.48
2019-01-15T01:56:03.611Z,2.65
2019-01-15T01:57:03.029Z,2.46
2019-01-15T01:58:03.434Z,3.08
2019-01-15T01:59:02.700Z,2.91
2019-01-15T02:00:03.187Z,2.56
2019-01-15T02:01:03.561Z,2.62
2019-01-15T02:02:03.397Z,3.39
2019-01-15T02:03:02.644Z,2.91
2019-01-15T02:04:03.735Z,2.91
2019-01-15T02:05:03.038Z,2.31
2019-01-15T02:06:03.174Z,2.31
2019-01-15T02:07:03.559Z,2.63
2019-01-15T02:08:02.634Z,2.45
2019-01-15T02:09:03.380Z,2.45
2019-01-15T02:10:03.162Z,2.94
2019-01-15T02:11:03.087Z,2.51
2019-01-15T02:12:03.254Z,2.21
2019-01-15T02:13:02.857Z,2.74
2019-01-15T02:14:02.992Z,2.38
2019-01-15T02:15:03.322Z,2.3
2019-01-15T02:16:02.717Z,2.45
2019-01-15T02:17:02.715Z,2.51
2019-01-15T02:18:03.188Z,2.78
2019-01-15T02:19:03.259Z,3.38
2019-01-15T02:20:02.936Z,3.66
2019-01-15T02:21:03.536Z,2.66
2019-01-15T02:22:03.360Z,3.31
2019-01-15T02:23:03.546Z,3.05
2019-01-15T02:24:03.268Z,2.56
2019-01-15T02:25:03.540Z,2.37
2019-01-15T02:26:03.028Z,2.65
2019-01-15T02:27:03.164Z,3.01
2019-01-15T02:28:02.936Z,3
2019-01-15T02:29:02.966Z,3.48
2019-01-15T02:30:02.834Z,3.07
2019-01-15T02:31:03.286Z,2.82
2019-01-15T02:32:03.209Z,3.06
2019-01-15T02:33:03.046Z,3.47
2019-01-15T02:34:02.843Z,2.81
2019-01-15T02:35:03.450Z,3.31
2019-01-15T02:36:02.938Z,3.41
2019-01-15T02:37:03.683Z,3.41
2019-01-15T02:38:03.121Z,3.18
2019-01-15T02:39:03.310Z,4.25
2019-01-15T02:40:03.309Z,4.52
2019-01-15T02:41:03.418Z,2.93
2019-01-15T02:42:03.585Z,3.23
2019-01-15T02:43:03.676Z,3.09
2019-01-15T02:44:03.183Z,4.28
2019-01-15T02:45:03.716Z,3.3
2019-01-15T02:46:03.488Z,3.59
2019-01-15T02:47:03.357Z,3.14
2019-01-15T02:48:02.996Z,3.47
2019-01-15T02:49:03.300Z,3.38
2019-01-15T02:50:02.927Z,3.55
2019-01-15T02:51:03.503Z,3.38
2019-01-15T02:52:03.097Z,3.42
2019-01-15T02:53:02.748Z,3.67
2019-01-15T02:54:03.311Z,3.67
2019-01-15T02:55:03.108Z,3.29
2019-01-15T02:56:03.120Z,2.64
2019-01-15T02:57:03.281Z,2.64
2019-01-15T02:58:02.676Z,3.66
2019-01-15T02:59:03.221Z,2.75
2019-01-15T03:00:03.733Z,3.27
2019-01-15T03:01:03.315Z,3.29
2019-01-15T03:02:03.110Z,3.29
2019-01-15T03:03:03.574Z,3.61
2019-01-15T03:04:02.831Z,3.47
2019-01-15T03:05:02.760Z,3.53
2019-01-15T03:06:02.672Z,3.36
2019-01-15T03:07:02.883Z,3.61
2019-01-15T03:08:03.610Z,3.26
2019-01-15T03:09:02.979Z,3.36
2019-01-15T03:10:02.687Z,2.75
2019-01-15T03:11:03.693Z,3.14
2019-01-15T03:12:02.685Z,3.13
2019-01-15T03:13:03.338Z,2.66
2019-01-15T03:14:03.762Z,2.81
2019-01-15T03:15:03.270Z,2.88
2019-01-15T03:16:02.876Z,3.05
2019-01-15T03:17:03.194Z,3.61
2019-01-15T03:18:03.590Z,3.01
2019-01-15T03:19:02.814Z,2.83
2019-01-15T03:20:03.671Z,3.67
2019-01-15T03:21:02.918Z,3.49
2019-01-15T03:22:03.361Z,3.01
2019-01-15T03:23:03.019Z,3.26
2019-01-15T03:24:03.575Z,3.71
2019-01-15T03:25:02.556Z,3.1
2019-01-15T03:26:03.139Z,2.72
2019-01-15T03:27:03.276Z,3.24
2019-01-15T03:28:03.202Z,2.48
2019-01-15T03:29:03.585Z,3.59
2019-01-15T03:30:03.594Z,2.72
2019-01-15T03:31:04.119Z,3.4
2019-01-15T03:32:03.505Z,2.69
2019-01-15T03:33:03.622Z,3.17
2019-01-15T03:34:02.857Z,2.74
2019-01-15T03:35:03.580Z,3.57
2019-01-15T03:36:03.198Z,3.3
2019-01-15T03:37:02.570Z,2.74
2019-01-15T03:38:02.964Z,2.42
2019-01-15T03:39:02.930Z,3.05
2019-01-15T03:40:03.328Z,3.21
2019-01-15T03:41:02.813Z,2.83
2019-01-15T03:42:03.301Z,2.86
2019-01-15T03:43:04.373Z,3.01
2019-01-15T03:44:02.830Z,3.01
2019-01-15T03:45:05.277Z,2.69
2019-01-15T03:46:04.702Z,2.69
2019-01-15T03:47:03.610Z,2.58
2019-01-15T03:48:03.310Z,2.54
2019-01-15T03:49:02.672Z,2.54
2019-01-15T03:50:03.237Z,2.64
2019-01-15T03:51:03.714Z,2.55
2019-01-15T03:52:03.105Z,2.98
2019-01-15T03:53:03.302Z,3.06
2019-01-15T03:54:03.537Z,2.89
2019-01-15T03:55:03.638Z,2.96
2019-01-15T03:56:02.863Z,2.62
2019-01-15T03:57:03.606Z,2.44
2019-01-15T03:58:02.721Z,3.32
2019-01-15T03:59:03.222Z,2.69
2019-01-15T04:00:02.958Z,2.91
2019-01-15T04:01:03.201Z,3.08
2019-01-15T04:02:02.998Z,3.14
2019-01-15T04:03:02.598Z,2.95
2019-01-15T04:04:02.956Z,3.02
2019-01-15T04:05:02.823Z,3.02
2019-01-15T04:06:03.221Z,3.27
2019-01-15T04:07:03.200Z,2.61
2019-01-15T04:08:03.546Z,2.35
2019-01-15T04:09:02.921Z,2.39
2019-01-15T04:10:03.175Z,3.5
2019-01-15T04:11:03.434Z,2.55
2019-01-15T04:12:03.592Z,2.13
2019-01-15T04:13:11.615Z,2.65
2019-01-15T04:14:02.941Z,2.32
2019-01-15T04:15:02.809Z,2.21
2019-01-15T04:16:03.167Z,1.94
2019-01-15T04:17:03.458Z,2.11
2019-01-15T04:18:03.023Z,3.04
2019-01-15T04:19:03.391Z,1.92
2019-01-15T04:20:03.744Z,2.6
2019-01-15T04:21:02.918Z,2.82
2019-01-15T04:22:02.880Z,2.81
2019-01-15T04:23:03.029Z,2.48
2019-01-15T04:24:02.980Z,2.16
2019-01-15T04:25:03.892Z,2.99
2019-01-15T04:26:02.620Z,2.41
2019-01-15T04:27:02.694Z,2.46
2019-01-15T04:28:03.515Z,2.14
2019-01-15T04:29:03.355Z,2.81
2019-01-15T04:30:02.719Z,2.37
2019-01-15T04:31:02.787Z,2.96
2019-01-15T04:32:03.210Z,2.96
2019-01-15T04:33:03.112Z,2.26
2019-01-15T04:34:03.037Z,2.26
2019-01-15T04:35:03.323Z,2.56
2019-01-15T04:36:03.086Z,2.85
2019-01-15T04:37:03.182Z,2.81
2019-01-15T04:38:03.518Z,2.75
2019-01-15T04:39:03.162Z,2.75
2019-01-15T04:40:03.317Z,2.41
2019-01-15T04:41:02.868Z,2.34
2019-01-15T04:42:03.457Z,3.31
2019-01-15T04:43:02.650Z,2.79
2019-01-15T04:44:03.429Z,3.06
2019-01-15T04:45:03.154Z,2.83
2019-01-15T04:46:03.344Z,2.56
2019-01-15T04:47:03.704Z,3.04
2019-01-15T04:48:03.486Z,2.64
2019-01-15T04:49:02.958Z,2.53
2019-01-15T04:50:03.633Z,2.85
2019-01-15T04:51:03.494Z,2.74
2019-01-15T04:52:02.892Z,3.04
2019-01-15T04:53:02.706Z,2.68
2019-01-15T04:54:03.263Z,4.12
2019-01-15T04:55:02.817Z,2.68
2019-01-15T04:56:03.422Z,3.06
2019-01-15T04:57:02.846Z,2.46
2019-01-15T04:58:03.408Z,2.42
2019-01-15T04:59:03.244Z,2.51
2019-01-15T05:00:02.584Z,3.02
2019-01-15T05:01:02.743Z,2.53
2019-01-15T05:02:03.662Z,2.76
2019-01-15T05:03:03.536Z,2.64
2019-01-15T05:04:03.005Z,2.64
2019-01-15T05:05:03.367Z,2.85
2019-01-15T05:06:03.069Z,2.39
2019-01-15T05:07:02.871Z,3.25
2019-01-15T05:08:02.952Z,3.35
2019-01-15T05:09:02.938Z,2.71
2019-01-15T05:10:03.051Z,2.69
2019-01-15T05:11:03.188Z,3.52
2019-01-15T05:12:03.493Z,3.46
2019-01-15T05:13:03.447Z,3.14
2019-01-15T05:14:03.031Z,2.46
2019-01-15T05:15:03.676Z,2.42
2019-01-15T05:16:03.308Z,3.16
2019-01-15T05:17:03.087Z,2.79
2019-01-15T05:18:02.908Z,2.74
2019-01-15T05:19:03.373Z,2.92
2019-01-15T05:20:02.915Z,2.98
2019-01-15T05:21:03.540Z,2.59
2019-01-15T05:22:02.865Z,3.16
2019-01-15T05:23:02.549Z,3.16
2019-01-15T05:24:03.545Z,3.35
2019-01-15T05:25:03.607Z,3.13
2019-01-15T05:26:03.227Z,3.13
2019-01-15T05:27:03.160Z,3.6
2019-01-15T05:28:03.047Z,3.05
2019-01-15T05:29:03.398Z,3.23
2019-01-15T05:30:02.944Z,3.69
2019-01-15T05:31:02.637Z,3.14
2019-01-15T05:32:02.825Z,2.76
2019-01-15T05:33:03.479Z,3.33
2019-01-15T05:34:03.461Z,3.35
2019-01-15T05:35:03.173Z,2.93
2019-01-15T05:36:03.526Z,3.14
2019-01-15T05:37:02.680Z,2.82
2019-01-15T05:38:03.136Z,3.71
2019-01-15T05:39:02.823Z,2.84
2019-01-15T05:40:03.674Z,2.99
2019-01-15T05:41:03.147Z,3.29
2019-01-15T05:42:02.998Z,3.18
2019-01-15T05:43:03.419Z,2.61
2019-01-15T05:44:03.508Z,3.19
2019-01-15T05:45:03.325Z,3.14
2019-01-15T05:46:03.343Z,3.19
2019-01-15T05:47:03.129Z,2.84
2019-01-15T05:48:02.933Z,2.7
2019-01-15T05:49:03.381Z,2.78
2019-01-15T05:50:02.837Z,2.96
2019-01-15T05:51:03.088Z,3.48
2019-01-15T05:52:02.976Z,2.76
2019-01-15T05:53:02.686Z,2.96
2019-01-15T05:54:03.072Z,3.14
2019-01-15T05:55:03.681Z,3.22
2019-01-15T05:56:03.468Z,3.75
2019-01-15T05:57:03.242Z,3.75
2019-01-15T05:58:02.814Z,3.1
2019-01-15T05:59:02.762Z,3.11
2019-01-15T06:00:03.328Z,2.82
2019-01-15T06:01:03.465Z,2.82
2019-01-15T06:02:02.986Z,3.18
2019-01-15T06:03:03.348Z,2.85
2019-01-15T06:04:03.300Z,3.01
2019-01-15T06:05:03.493Z,3.01
2019-01-15T06:06:02.992Z,2.95
2019-01-15T06:07:02.888Z,2.86
2019-01-15T06:08:03.331Z,2.73
2019-01-15T06:09:02.950Z,3.14
2019-01-15T06:10:03.121Z,2.94
2019-01-15T06:11:03.238Z,2.82
2019-01-15T06:12:03.527Z,3.15
2019-01-15T06:13:03.441Z,2.39
2019-01-15T06:14:02.836Z,2.56
2019-01-15T06:15:03.663Z,2.21
2019-01-15T06:16:02.747Z,2.06
2019-01-15T06:17:03.051Z,2.52
2019-01-15T06:18:02.966Z,2.39
2019-01-15T06:19:02.936Z,2.28
2019-01-15T06:20:03.246Z,2.31
2019-01-15T06:21:02.786Z,2.16
2019-01-15T06:22:03.351Z,2.24
2019-01-15T06:23:03.038Z,2.42
2019-01-15T06:24:03.556Z,1.96
2019-01-15T06:25:03.237Z,1.51
2019-01-15T06:26:03.166Z,1.87
2019-01-15T06:27:03.024Z,2.05
2019-01-15T06:28:02.810Z,2.15
2019-01-15T06:29:03.094Z,1.99
2019-01-15T06:30:03.570Z,1.81
2019-01-15T06:31:03.344Z,1.87
2019-01-15T06:32:03.192Z,1.75
2019-01-15T06:33:02.825Z,2.39
2019-01-15T06:34:02.633Z,2.61
2019-01-15T06:35:03.107Z,2.05
2019-01-15T06:36:02.995Z,2.25
2019-01-15T06:37:03.485Z,1.93
2019-01-15T06:38:03.105Z,2.49
2019-01-15T06:39:03.416Z,2.3
2019-01-15T06:40:03.705Z,1.94
2019-01-15T06:41:03.054Z,2.41
2019-01-15T06:42:03.093Z,2.03
2019-01-15T06:43:03.980Z,2.21
2019-01-15T06:44:02.853Z,2.29
2019-01-15T06:45:03.419Z,2.45
2019-01-15T06:46:02.895Z,2.04
2019-01-15T06:47:02.649Z,2.39
2019-01-15T06:48:02.891Z,2.21
2019-01-15T06:49:02.959Z,1.97
2019-01-15T06:50:03.357Z,2.02
2019-01-15T06:51:02.895Z,1.82
2019-01-15T06:52:02.996Z,2.01
2019-01-15T06:53:02.789Z,2.01
2019-01-15T06:54:02.836Z,2.48
2019-01-15T06:55:03.012Z,2.5
2019-01-15T06:56:03.258Z,2.5
2019-01-15T06:57:03.205Z,2.07
2019-01-15T06:58:03.308Z,2.12
2019-01-15T06:59:03.371Z,1.94
2019-01-15T07:00:02.971Z,2.42
2019-01-15T07:01:03.817Z,2.22
2019-01-15T07:02:02.789Z,2.22
2019-01-15T07:03:03.144Z,2.43
2019-01-15T07:04:03.175Z,2.17
2019-01-15T07:05:03.783Z,2.33
2019-01-15T07:06:03.562Z,2.01
2019-01-15T07:07:02.876Z,3.05
2019-01-15T07:08:03.686Z,1.98
2019-01-15T07:09:03.049Z,2.32
2019-01-15T07:10:02.920Z,2
2019-01-15T07:11:02.804Z,2.68
2019-01-15T07:12:03.511Z,2.02
2019-01-15T07:13:03.244Z,2.48
2019-01-15T07:14:02.774Z,1.92
2019-01-15T07:15:03.259Z,2.39
2019-01-15T07:16:02.832Z,2.3
2019-01-15T07:17:02.832Z,1.95
2019-01-15T07:18:02.651Z,2.66
2019-01-15T07:19:03.179Z,2.27
2019-01-15T07:20:03.563Z,2.39
2019-01-15T07:21:03.116Z,2.31
2019-01-15T07:22:03.336Z,2.29
2019-01-15T07:23:03.323Z,3.16
2019-01-15T07:24:02.826Z,2.28
2019-01-15T07:25:03.545Z,2.21
2019-01-15T07:26:03.262Z,2.16
2019-01-15T07:27:02.885Z,2.84
2019-01-15T07:28:02.860Z,2.14
2019-01-15T07:29:03.593Z,2.15
2019-01-15T07:30:03.530Z,2.06
2019-01-15T07:31:03.298Z,1.61
2019-01-15T07:32:02.852Z,2.45
2019-01-15T07:33:02.793Z,2.01
2019-01-15T07:34:02.899Z,2.05
2019-01-15T07:35:02.822Z,2.44
2019-01-15T07:36:02.968Z,2.29
2019-01-15T07:37:03.137Z,2.59
2019-01-15T07:38:03.195Z,2.36
2019-01-15T07:39:03.354Z,2.94
2019-01-15T07:40:03.557Z,2.16
2019-01-15T07:41:02.999Z,2.01
2019-01-15T07:42:03.024Z,2.01
2019-01-15T07:43:03.161Z,2.68
2019-01-15T07:44:04.650Z,2.68
2019-01-15T07:45:03.416Z,1.88
2019-01-15T07:46:03.145Z,2.09
2019-01-15T07:47:02.919Z,2.55
2019-01-15T07:48:03.607Z,2.26
2019-01-15T07:49:02.941Z,2.74
2019-01-15T07:50:03.756Z,1.79
2019-01-15T07:51:03.501Z,2.15
2019-01-15T07:52:03.509Z,3.15
2019-01-15T07:53:03.498Z,2.18
2019-01-15T07:54:02.993Z,1.86
2019-01-15T07:55:02.695Z,2.78
2019-01-15T07:56:02.688Z,2.21
2019-01-15T07:57:03.535Z,2.09
2019-01-15T07:58:03.323Z,2.41
2019-01-15T07:59:02.629Z,2.08
2019-01-15T08:00:03.110Z,2.18
2019-01-15T08:01:02.946Z,2.12
2019-01-15T08:02:03.116Z,2.38
2019-01-15T08:03:02.846Z,2.69
2019-01-15T08:04:03.524Z,1.96
2019-01-15T08:05:03.504Z,2.01
2019-01-15T08:06:03.148Z,2.09
2019-01-15T08:07:03.036Z,1.86
2019-01-15T08:08:02.585Z,1.89
2019-01-15T08:09:03.207Z,1.84
2019-01-15T08:10:02.709Z,1.96
2019-01-15T08:11:02.880Z,2.15
2019-01-15T08:12:03.273Z,2.29
2019-01-15T08:13:02.849Z,1.62
2019-01-15T08:14:03.102Z,1.73
2019-01-15T08:15:03.109Z,2.36
2019-01-15T08:16:03.159Z,1.85
2019-01-15T08:17:02.798Z,2.2
2019-01-15T08:18:03.651Z,1.62
2019-01-15T08:19:03.352Z,1.66
2019-01-15T08:20:03.192Z,1.61
2019-01-15T08:21:02.979Z,1.89
2019-01-15T08:22:02.193Z,1.78
2019-01-15T08:23:02.746Z,2.02
2019-01-15T08:24:02.614Z,1.58
2019-01-15T08:25:03.602Z,1.66
2019-01-15T08:26:03.555Z,2.15
2019-01-15T08:27:03.284Z,3.33
2019-01-15T08:28:02.883Z,3.09
2019-01-15T08:29:02.877Z,2.29
2019-01-15T08:30:02.839Z,2.29
2019-01-15T08:31:03.138Z,2.08
2019-01-15T08:32:03.197Z,2.21
2019-01-15T08:33:02.792Z,2.21
2019-01-15T08:34:03.454Z,1.97
2019-01-15T08:35:03.021Z,2.64
2019-01-15T08:36:02.745Z,2.14
2019-01-15T08:37:03.530Z,2.32
2019-01-15T08:38:02.980Z,2.22
2019-01-15T08:39:02.912Z,2.48
2019-01-15T08:40:03.241Z,1.96
2019-01-15T08:41:02.825Z,1.94
2019-01-15T08:42:03.381Z,2.99
2019-01-15T08:43:02.555Z,1.98
2019-01-15T08:44:02.773Z,2.11
2019-01-15T08:45:03.470Z,2.48
2019-01-15T08:46:02.801Z,2.41
2019-01-15T08:47:03.527Z,2.15
2019-01-15T08:48:03.021Z,2.16
2019-01-15T08:49:02.776Z,2.32
2019-01-15T08:50:03.678Z,2.45
2019-01-15T08:51:02.878Z,2.55
2019-01-15T08:52:02.937Z,2.68
2019-01-15T08:53:03.709Z,2.39
2019-01-15T08:54:03.056Z,2.09
2019-01-15T08:55:03.791Z,2.56
2019-01-15T08:56:02.714Z,2.13
2019-01-15T08:57:02.713Z,2.21
2019-01-15T08:58:02.671Z,2.12
2019-01-15T08:59:03.055Z,2.46
2019-01-15T09:00:03.470Z,2.73
2019-01-15T09:01:03.443Z,2.03
2019-01-15T09:02:03.336Z,2.15
2019-01-15T09:03:02.882Z,2.26
2019-01-15T09:04:02.821Z,2.47
2019-01-15T09:05:02.762Z,2.48
2019-01-15T09:06:03.429Z,2.63
2019-01-15T09:07:03.331Z,3
2019-01-15T09:08:03.111Z,2.45
2019-01-15T09:09:02.989Z,2.39
2019-01-15T09:10:03.418Z,2.34
2019-01-15T09:11:03.396Z,2.56
2019-01-15T09:12:03.246Z,2.41
2019-01-15T09:13:02.978Z,1.78
2019-01-15T09:14:02.912Z,2.82
2019-01-15T09:15:02.847Z,2.34
2019-01-15T09:16:02.775Z,2.34
2019-01-15T09:17:11.260Z,2.24
2019-01-15T09:18:03.643Z,2.55
2019-01-15T09:19:02.567Z,2.24
2019-01-15T09:20:02.667Z,2.84
2019-01-15T09:21:02.878Z,2.84
2019-01-15T09:22:03.657Z,2.53
2019-01-15T09:23:03.292Z,2.38
2019-01-15T09:24:02.644Z,2.91
2019-01-15T09:25:03.027Z,2.84
2019-01-15T09:26:02.895Z,2.25
2019-01-15T09:27:02.985Z,2.38
2019-01-15T09:28:03.747Z,3.39
2019-01-15T09:29:03.460Z,2.37
2019-01-15T09:30:03.342Z,2.89
2019-01-15T09:31:02.860Z,2.64
2019-01-15T09:32:03.670Z,2.89
2019-01-15T09:33:03.452Z,2.69
2019-01-15T09:34:03.302Z,2.8
2019-01-15T09:35:03.657Z,2.22
2019-01-15T09:36:03.411Z,3.01
2019-01-15T09:37:02.753Z,2.73
2019-01-15T09:38:02.926Z,2.16
2019-01-15T09:40:05.803Z,2.25
2019-01-15T09:41:50.008Z,3.1
2019-01-15T09:42:02.163Z,2.9
2019-01-15T09:42:02.992Z,3.05
2019-01-15T09:43:02.968Z,2.8
2019-01-15T09:44:03.668Z,2.89
2019-01-15T09:45:03.187Z,2.74
2019-01-15T09:46:03.990Z,2.51
2019-01-15T09:47:03.482Z,3.34
2019-01-15T09:48:03.708Z,2.85
2019-01-15T09:49:03.639Z,2.68
2019-01-15T09:50:03.058Z,2.41
2019-01-15T09:51:03.736Z,2.22
2019-01-15T09:52:03.033Z,2.95
2019-01-15T09:53:03.164Z,3.17
2019-01-15T09:54:02.913Z,3.01
2019-01-15T09:55:02.750Z,2.66
2019-01-15T09:56:02.749Z,2.99
2019-01-15T09:57:03.532Z,2.4
2019-01-15T09:58:03.151Z,2.58
2019-01-15T09:59:03.413Z,2.45
2019-01-15T10:00:03.497Z,2.89
2019-01-15T10:01:03.147Z,2.82
2019-01-15T10:02:03.405Z,2.84
2019-01-15T10:03:02.984Z,2.62
2019-01-15T10:04:03.264Z,2.31
2019-01-15T10:05:03.471Z,3.02
2019-01-15T10:06:03.062Z,3.52
2019-01-15T10:07:03.001Z,2.82
2019-01-15T10:08:03.381Z,2.98
2019-01-15T10:09:02.847Z,2.99
2019-01-15T10:10:03.675Z,2.86
2019-01-15T10:11:02.587Z,2.86
2019-01-15T10:12:03.404Z,3.3
2019-01-15T10:13:03.489Z,3.3
2019-01-15T10:14:02.642Z,3.5
2019-01-15T10:15:03.209Z,2.9
2019-01-15T10:16:02.891Z,2.79
2019-01-15T10:17:03.120Z,2.48
2019-01-15T10:18:03.114Z,2.81
2019-01-15T10:19:02.934Z,2.66
2019-01-15T10:20:02.882Z,3.34
2019-01-15T10:21:03.380Z,3.65
2019-01-15T10:22:02.599Z,3.25
2019-01-15T10:23:02.653Z,2.86
2019-01-15T10:24:03.553Z,3.13
2019-01-15T10:25:03.319Z,3.11
2019-01-15T10:26:03.622Z,2.68
2019-01-15T10:27:03.069Z,2.64
2019-01-15T10:28:03.647Z,2.94
2019-01-15T10:29:02.892Z,2.93
2019-01-15T10:30:04.024Z,2.7
2019-01-15T10:31:02.953Z,2.8
2019-01-15T10:32:02.745Z,2.55
2019-01-15T10:33:02.967Z,2.95
2019-01-15T10:34:03.280Z,2.44
2019-01-15T10:35:03.239Z,2.54
2019-01-15T10:36:02.723Z,2.53
2019-01-15T10:37:02.732Z,2.1
2019-01-15T10:38:02.616Z,2.31
2019-01-15T10:39:03.357Z,1.78
2019-01-15T10:40:03.567Z,2.75
2019-01-15T10:41:02.904Z,2.23
2019-01-15T10:42:02.530Z,2.34
2019-01-15T10:43:02.639Z,2.72
2019-01-15T10:44:03.557Z,2.1
2019-01-15T10:45:03.547Z,2.02
2019-01-15T10:46:02.626Z,2.34
2019-01-15T10:47:02.829Z,2.52
2019-01-15T10:48:03.785Z,1.94
2019-01-15T10:49:02.718Z,2.14
2019-01-15T10:50:03.358Z,2.05
2019-01-15T10:51:02.693Z,2.18
2019-01-15T10:52:03.649Z,1.59
2019-01-15T10:53:03.402Z,2.11
2019-01-15T10:54:03.208Z,1.71
2019-01-15T10:55:02.795Z,2.17
2019-01-15T10:56:03.181Z,2.36
2019-01-15T10:57:03.193Z,1.95
2019-01-15T10:58:03.425Z,2.32
2019-01-15T10:59:03.300Z,1.84
2019-01-15T11:00:03.554Z,2.15
2019-01-15T11:01:03.496Z,2.34
2019-01-15T11:02:03.501Z,2.34
2019-01-15T11:03:02.721Z,1.96
2019-01-15T11:04:02.835Z,2.14
2019-01-15T11:05:02.793Z,2.14
2019-01-15T11:06:03.127Z,1.89
2019-01-15T11:07:03.393Z,1.98
2019-01-15T11:08:03.428Z,2.22
2019-01-15T11:09:02.797Z,2.65
2019-01-15T11:10:02.997Z,1.78
2019-01-15T11:11:03.397Z,1.74
2019-01-15T11:12:03.589Z,2.05
2019-01-15T11:13:03.408Z,2.24
2019-01-15T11:14:03.024Z,1.94
2019-01-15T11:15:03.108Z,2.39
2019-01-15T11:16:03.110Z,1.97
2019-01-15T11:17:03.543Z,2.01
2019-01-15T11:18:02.780Z,1.85
2019-01-15T11:19:03.467Z,2.04
2019-01-15T11:20:02.747Z,2.12
2019-01-15T11:21:03.466Z,1.98
2019-01-15T11:22:03.587Z,1.66
2019-01-15T11:23:03.478Z,2.09
2019-01-15T11:24:03.070Z,2.25
2019-01-15T11:25:03.496Z,1.91
2019-01-15T11:26:03.033Z,1.77
2019-01-15T11:27:03.498Z,2.22
2019-01-15T11:28:02.859Z,2.02
2019-01-15T11:29:02.710Z,2.54
2019-01-15T11:30:02.954Z,2.15
2019-01-15T11:31:03.053Z,2.42
2019-01-15T11:32:03.258Z,1.74
2019-01-15T11:33:02.722Z,1.89
2019-01-15T11:34:02.580Z,2.42
2019-01-15T11:35:03.119Z,2.62
2019-01-15T11:36:03.064Z,2.05
2019-01-15T11:37:02.993Z,1.59
2019-01-15T11:38:03.319Z,2.42
2019-01-15T11:39:02.854Z,1.82
2019-01-15T11:40:03.188Z,2.09
2019-01-15T11:41:03.061Z,2.01
2019-01-15T11:42:03.163Z,1.78
2019-01-15T11:43:02.905Z,1.89
2019-01-15T11:44:02.875Z,1.7
2019-01-15T11:45:03.991Z,1.97
2019-01-15T11:46:02.724Z,2.28
2019-01-15T11:47:03.369Z,1.86
2019-01-15T11:48:02.665Z,1.82
2019-01-15T11:49:03.726Z,2.07
2019-01-15T11:50:03.442Z,2.07
2019-01-15T11:51:03.034Z,1.69
2019-01-15T11:52:02.764Z,1.84
2019-01-15T11:53:03.128Z,1.84
2019-01-15T11:54:03.011Z,2.1
2019-01-15T11:55:03.246Z,2.1
2019-01-15T11:56:03.391Z,1.99
2019-01-15T11:57:03.031Z,1.95
2019-01-15T11:58:03.013Z,2
2019-01-15T11:59:03.189Z,1.96
2019-01-15T12:00:03.316Z,1.81
2019-01-15T12:01:03.503Z,1.57
2019-01-15T12:02:03.450Z,1.87
2019-01-15T12:03:04.018Z,2.24
2019-01-15T12:04:02.844Z,1.99
2019-01-15T12:05:02.989Z,1.55
2019-01-15T12:06:03.513Z,1.78
2019-01-15T12:07:03.306Z,1.8
2019-01-15T12:08:03.593Z,1.92
2019-01-15T12:09:03.476Z,1.84
2019-01-15T12:10:03.212Z,1.86
2019-01-15T12:11:03.029Z,1.66
2019-01-15T12:12:02.996Z,1.33
2019-01-15T12:13:03.178Z,1.81
2019-01-15T12:14:02.528Z,2.22
2019-01-15T12:15:11.113Z,1.68
2019-01-15T12:16:02.931Z,2.21
2019-01-15T12:17:03.410Z,2.39
2019-01-15T12:18:03.211Z,1.75
2019-01-15T12:19:02.858Z,1.59
2019-01-15T12:20:02.713Z,1.72
2019-01-15T12:21:03.354Z,1.86
2019-01-15T12:22:02.829Z,1.88
2019-01-15T12:23:03.036Z,1.38
2019-01-15T12:24:03.003Z,1.58
2019-01-15T12:25:03.101Z,1.86
2019-01-15T12:26:02.893Z,1.91
2019-01-15T12:27:02.987Z,1.91
2019-01-15T12:28:03.173Z,1.82
2019-01-15T12:29:02.925Z,1.55
2019-01-15T12:30:03.681Z,2.16
2019-01-15T12:31:02.893Z,1.75
2019-01-15T12:32:03.270Z,1.56
2019-01-15T12:33:03.516Z,1.68
2019-01-15T12:34:02.876Z,2.11
2019-01-15T12:35:03.301Z,1.51
2019-01-15T12:36:03.342Z,1.69
2019-01-15T12:37:03.199Z,1.93
2019-01-15T12:38:03.060Z,2.05
2019-01-15T12:39:03.409Z,1.93
2019-01-15T12:40:02.893Z,1.93
2019-01-15T12:41:02.862Z,1.54
2019-01-15T12:42:03.654Z,1.54
2019-01-15T12:43:03.408Z,1.75
2019-01-15T12:44:02.905Z,1.89
2019-01-15T12:45:03.710Z,1.89
2019-01-15T12:46:02.767Z,2.04
2019-01-15T12:47:03.673Z,2.32
2019-01-15T12:48:03.107Z,2.06
2019-01-15T12:49:02.920Z,1.73
2019-01-15T12:50:03.317Z,1.92
2019-01-15T12:51:03.553Z,2.68
2019-01-15T12:52:02.689Z,1.82
2019-01-15T12:53:03.226Z,1.44
2019-01-15T12:54:03.065Z,1.85
2019-01-15T12:55:02.796Z,2.36
2019-01-15T12:56:03.176Z,2.35
2019-01-15T12:57:02.825Z,1.65
2019-01-15T12:58:03.380Z,1.77
2019-01-15T12:59:02.973Z,2.08
2019-01-15T13:00:03.286Z,1.73
2019-01-15T13:01:03.360Z,2.05
2019-01-15T13:02:03.200Z,2.19
2019-01-15T13:03:03.388Z,1.96
2019-01-15T13:04:02.898Z,1.91
2019-01-15T13:05:02.719Z,1.96
2019-01-15T13:06:02.654Z,2.05
2019-01-15T13:07:02.885Z,2.3
2019-01-15T13:08:03.050Z,1.78
2019-01-15T13:09:03.542Z,2.37
2019-01-15T13:10:03.036Z,2.1
2019-01-15T13:11:03.073Z,2.06
2019-01-15T13:12:03.013Z,2.38
2019-01-15T13:13:03.337Z,2.78
2019-01-15T13:14:03.186Z,2.49
2019-01-15T13:15:03.087Z,2.11
2019-01-15T13:16:03.267Z,2.26
2019-01-15T13:17:02.977Z,2.69
2019-01-15T13:18:03.517Z,2.36
2019-01-15T13:19:03.371Z,2.39
2019-01-15T13:20:03.550Z,2.24